sensor_id;sensor_type;location;lat;lon;timestamp;P1;durP1;ratioP1;P2;durP2;ratioP2
22737;SDS011;11536;50.860;4.286;2022-08-14T00:00:16;4.85;;;2.40;;
22737;SDS011;11536;50.860;4.286;2022-08-14T00:02:43;6.15;;;2.42;;
22737;SDS011;11536;50.860;4.286;2022-08-14T00:05:11;5.68;;;2.58;;
22737;SDS011;11536;50.860;4.286;2022-08-14T00:07:38;5.00;;;2.53;;
22737;SDS011;11536;50.860;4.286;2022-08-14T00:10:05;4.25;;;2.30;;
22737;SDS011;11536;50.860;4.286;2022-08-14T00:12:35;7.60;;;2.47;;
22737;SDS011;11536;50.860;4.286;2022-08-14T00:15:04;7.57;;;2.50;;
22737;SDS011;11536;50.860;4.286;2022-08-14T00:17:33;4.72;;;2.10;;
22737;SDS011;11536;50.860;4.286;2022-08-14T00:19:59;6.03;;;2.35;;
22737;SDS011;11536;50.860;4.286;2022-08-14T00:22:24;4.07;;;2.25;;
22737;SDS011;11536;50.860;4.286;2022-08-14T00:24:50;6.03;;;2.10;;
22737;SDS011;11536;50.860;4.286;2022-08-14T00:27:16;4.50;;;2.20;;
22737;SDS011;11536;50.860;4.286;2022-08-14T00:29:41;6.80;;;2.20;;
22737;SDS011;11536;50.860;4.286;2022-08-14T00:32:07;5.15;;;2.22;;
22737;SDS011;11536;50.860;4.286;2022-08-14T00:34:33;4.35;;;2.25;;
22737;SDS011;11536;50.860;4.286;2022-08-14T00:36:59;6.80;;;2.25;;
22737;SDS011;11536;50.860;4.286;2022-08-14T00:39:25;4.68;;;2.50;;
22737;SDS011;11536;50.860;4.286;2022-08-14T00:41:50;5.43;;;2.28;;
22737;SDS011;11536;50.860;4.286;2022-08-14T00:44:16;5.90;;;2.25;;
22737;SDS011;11536;50.860;4.286;2022-08-14T00:46:42;6.07;;;2.22;;
22737;SDS011;11536;50.860;4.286;2022-08-14T00:49:09;3.22;;;1.90;;
22737;SDS011;11536;50.860;4.286;2022-08-14T00:51:36;5.10;;;2.22;;
22737;SDS011;11536;50.860;4.286;2022-08-14T00:54:02;4.20;;;2.22;;
22737;SDS011;11536;50.860;4.286;2022-08-14T00:56:29;4.30;;;2.10;;
22737;SDS011;11536;50.860;4.286;2022-08-14T00:58:54;4.22;;;1.90;;
22737;SDS011;11536;50.860;4.286;2022-08-14T01:01:20;4.70;;;2.30;;
22737;SDS011;11536;50.860;4.286;2022-08-14T01:03:46;6.60;;;2.13;;
22737;SDS011;11536;50.860;4.286;2022-08-14T01:06:12;4.78;;;2.28;;
22737;SDS011;11536;50.860;4.286;2022-08-14T01:08:41;4.47;;;2.13;;
22737;SDS011;11536;50.860;4.286;2022-08-14T01:11:08;4.10;;;2.10;;
22737;SDS011;11536;50.860;4.286;2022-08-14T01:13:36;4.80;;;2.10;;
22737;SDS011;11536;50.860;4.286;2022-08-14T01:16:05;4.18;;;1.90;;
22737;SDS011;11536;50.860;4.286;2022-08-14T01:18:33;5.07;;;2.30;;
22737;SDS011;11536;50.860;4.286;2022-08-14T01:21:22;5.25;;;2.15;;
22737;SDS011;11536;50.860;4.286;2022-08-14T01:23:58;5.40;;;2.13;;
22737;SDS011;11536;50.860;4.286;2022-08-14T01:26:25;4.82;;;2.20;;
22737;SDS011;11536;50.860;4.286;2022-08-14T01:28:53;4.80;;;2.10;;
22737;SDS011;11536;50.860;4.286;2022-08-14T01:31:31;4.30;;;1.88;;
22737;SDS011;11536;50.860;4.286;2022-08-14T01:34:01;5.55;;;2.10;;
22737;SDS011;11536;50.860;4.286;2022-08-14T01:36:28;7.18;;;2.40;;
22737;SDS011;11536;50.860;4.286;2022-08-14T01:39:00;3.38;;;2.03;;
22737;SDS011;11536;50.860;4.286;2022-08-14T01:41:39;4.10;;;2.20;;
22737;SDS011;11536;50.860;4.286;2022-08-14T01:44:08;3.80;;;1.90;;
22737;SDS011;11536;50.860;4.286;2022-08-14T01:46:39;4.25;;;2.10;;
22737;SDS011;11536;50.860;4.286;2022-08-14T01:49:09;3.17;;;2.00;;
22737;SDS011;11536;50.860;4.286;2022-08-14T01:51:38;4.45;;;2.28;;
22737;SDS011;11536;50.860;4.286;2022-08-14T01:54:05;6.15;;;2.10;;
22737;SDS011;11536;50.860;4.286;2022-08-14T01:56:35;4.05;;;1.80;;
22737;SDS011;11536;50.860;4.286;2022-08-14T01:59:19;3.38;;;1.90;;
22737;SDS011;11536;50.860;4.286;2022-08-14T02:01:48;3.80;;;2.00;;
22737;SDS011;11536;50.860;4.286;2022-08-14T02:04:15;4.05;;;2.25;;
22737;SDS011;11536;50.860;4.286;2022-08-14T02:06:42;5.47;;;2.33;;
22737;SDS011;11536;50.860;4.286;2022-08-14T02:09:08;4.57;;;1.98;;
22737;SDS011;11536;50.860;4.286;2022-08-14T02:11:34;4.53;;;2.20;;
22737;SDS011;11536;50.860;4.286;2022-08-14T02:14:02;5.88;;;2.03;;
22737;SDS011;11536;50.860;4.286;2022-08-14T02:16:30;5.05;;;2.53;;
22737;SDS011;11536;50.860;4.286;2022-08-14T02:19:05;4.80;;;2.20;;
22737;SDS011;11536;50.860;4.286;2022-08-14T02:21:33;5.38;;;2.28;;
22737;SDS011;11536;50.860;4.286;2022-08-14T02:24:00;4.90;;;2.30;;
22737;SDS011;11536;50.860;4.286;2022-08-14T02:26:29;3.60;;;2.00;;
22737;SDS011;11536;50.860;4.286;2022-08-14T02:29:19;4.07;;;2.50;;
22737;SDS011;11536;50.860;4.286;2022-08-14T02:31:48;4.32;;;2.22;;
22737;SDS011;11536;50.860;4.286;2022-08-14T02:34:24;4.38;;;1.92;;
22737;SDS011;11536;50.860;4.286;2022-08-14T02:36:56;7.50;;;2.45;;
22737;SDS011;11536;50.860;4.286;2022-08-14T02:39:23;5.00;;;2.35;;
22737;SDS011;11536;50.860;4.286;2022-08-14T02:41:49;5.38;;;2.55;;
22737;SDS011;11536;50.860;4.286;2022-08-14T02:44:17;6.05;;;2.63;;
22737;SDS011;11536;50.860;4.286;2022-08-14T02:46:47;9.95;;;3.22;;
22737;SDS011;11536;50.860;4.286;2022-08-14T02:49:14;5.45;;;2.65;;
22737;SDS011;11536;50.860;4.286;2022-08-14T02:51:41;5.32;;;2.70;;
22737;SDS011;11536;50.860;4.286;2022-08-14T02:54:07;6.80;;;2.78;;
22737;SDS011;11536;50.860;4.286;2022-08-14T02:56:34;4.72;;;2.78;;
22737;SDS011;11536;50.860;4.286;2022-08-14T02:59:02;5.18;;;2.75;;
22737;SDS011;11536;50.860;4.286;2022-08-14T03:01:30;5.32;;;2.47;;
22737;SDS011;11536;50.860;4.286;2022-08-14T03:03:57;5.50;;;2.80;;
22737;SDS011;11536;50.860;4.286;2022-08-14T03:06:23;5.80;;;2.35;;
22737;SDS011;11536;50.860;4.286;2022-08-14T03:08:49;6.50;;;2.63;;
22737;SDS011;11536;50.860;4.286;2022-08-14T03:11:19;4.03;;;2.20;;
22737;SDS011;11536;50.860;4.286;2022-08-14T03:13:47;4.10;;;2.10;;
22737;SDS011;11536;50.860;4.286;2022-08-14T03:16:18;6.45;;;2.17;;
22737;SDS011;11536;50.860;4.286;2022-08-14T03:18:46;6.47;;;3.25;;
22737;SDS011;11536;50.860;4.286;2022-08-14T03:21:14;5.68;;;2.33;;
22737;SDS011;11536;50.860;4.286;2022-08-14T03:23:43;6.10;;;2.20;;
22737;SDS011;11536;50.860;4.286;2022-08-14T03:26:11;4.10;;;2.33;;
22737;SDS011;11536;50.860;4.286;2022-08-14T03:28:43;4.70;;;2.40;;
22737;SDS011;11536;50.860;4.286;2022-08-14T03:31:11;4.57;;;2.20;;
22737;SDS011;11536;50.860;4.286;2022-08-14T03:33:37;5.97;;;2.15;;
22737;SDS011;11536;50.860;4.286;2022-08-14T03:36:04;5.53;;;2.42;;
22737;SDS011;11536;50.860;4.286;2022-08-14T03:38:39;4.90;;;2.47;;
22737;SDS011;11536;50.860;4.286;2022-08-14T03:41:18;7.22;;;2.40;;
22737;SDS011;11536;50.860;4.286;2022-08-14T03:43:46;5.80;;;2.67;;
22737;SDS011;11536;50.860;4.286;2022-08-14T03:46:16;4.90;;;2.25;;
22737;SDS011;11536;50.860;4.286;2022-08-14T03:48:43;5.30;;;2.80;;
22737;SDS011;11536;50.860;4.286;2022-08-14T03:51:11;4.15;;;2.30;;
22737;SDS011;11536;50.860;4.286;2022-08-14T03:53:38;6.25;;;2.42;;
22737;SDS011;11536;50.860;4.286;2022-08-14T03:56:07;4.35;;;2.22;;
22737;SDS011;11536;50.860;4.286;2022-08-14T03:58:39;5.47;;;2.30;;
22737;SDS011;11536;50.860;4.286;2022-08-14T04:01:10;3.80;;;2.13;;
22737;SDS011;11536;50.860;4.286;2022-08-14T04:03:36;6.72;;;2.45;;
22737;SDS011;11536;50.860;4.286;2022-08-14T04:06:03;4.38;;;2.20;;
22737;SDS011;11536;50.860;4.286;2022-08-14T04:08:29;4.50;;;2.38;;
22737;SDS011;11536;50.860;4.286;2022-08-14T04:10:58;4.20;;;2.20;;
22737;SDS011;11536;50.860;4.286;2022-08-14T04:13:24;3.92;;;2.38;;
22737;SDS011;11536;50.860;4.286;2022-08-14T04:15:50;4.72;;;2.40;;
22737;SDS011;11536;50.860;4.286;2022-08-14T04:18:15;5.35;;;2.47;;
22737;SDS011;11536;50.860;4.286;2022-08-14T04:20:41;8.35;;;2.00;;
22737;SDS011;11536;50.860;4.286;2022-08-14T04:23:07;4.45;;;2.50;;
22737;SDS011;11536;50.860;4.286;2022-08-14T04:25:34;3.75;;;1.98;;
22737;SDS011;11536;50.860;4.286;2022-08-14T04:28:03;4.28;;;2.25;;
22737;SDS011;11536;50.860;4.286;2022-08-14T04:30:31;4.65;;;1.73;;
22737;SDS011;11536;50.860;4.286;2022-08-14T04:33:03;4.55;;;2.45;;
22737;SDS011;11536;50.860;4.286;2022-08-14T04:35:32;4.97;;;2.40;;
22737;SDS011;11536;50.860;4.286;2022-08-14T04:38:07;4.47;;;2.47;;
22737;SDS011;11536;50.860;4.286;2022-08-14T04:40:52;5.70;;;2.13;;
22737;SDS011;11536;50.860;4.286;2022-08-14T04:43:36;3.67;;;2.15;;
22737;SDS011;11536;50.860;4.286;2022-08-14T04:46:05;6.82;;;2.47;;
22737;SDS011;11536;50.860;4.286;2022-08-14T04:48:32;8.07;;;2.45;;
22737;SDS011;11536;50.860;4.286;2022-08-14T04:50:57;5.47;;;2.17;;
22737;SDS011;11536;50.860;4.286;2022-08-14T04:53:25;3.92;;;2.15;;
22737;SDS011;11536;50.860;4.286;2022-08-14T04:55:53;4.22;;;2.30;;
22737;SDS011;11536;50.860;4.286;2022-08-14T04:58:20;5.13;;;2.22;;
22737;SDS011;11536;50.860;4.286;2022-08-14T05:00:48;4.80;;;2.50;;
22737;SDS011;11536;50.860;4.286;2022-08-14T05:03:16;4.28;;;2.30;;
22737;SDS011;11536;50.860;4.286;2022-08-14T05:05:45;4.85;;;2.15;;
22737;SDS011;11536;50.860;4.286;2022-08-14T05:08:15;6.03;;;2.67;;
22737;SDS011;11536;50.860;4.286;2022-08-14T05:10:42;6.53;;;2.35;;
22737;SDS011;11536;50.860;4.286;2022-08-14T05:13:10;7.53;;;2.67;;
22737;SDS011;11536;50.860;4.286;2022-08-14T05:15:40;4.30;;;2.75;;
22737;SDS011;11536;50.860;4.286;2022-08-14T05:18:08;6.05;;;2.22;;
22737;SDS011;11536;50.860;4.286;2022-08-14T05:20:37;5.22;;;2.50;;
22737;SDS011;11536;50.860;4.286;2022-08-14T05:23:14;4.38;;;2.35;;
22737;SDS011;11536;50.860;4.286;2022-08-14T05:25:43;5.25;;;2.30;;
22737;SDS011;11536;50.860;4.286;2022-08-14T05:28:12;5.70;;;2.65;;
22737;SDS011;11536;50.860;4.286;2022-08-14T05:30:43;5.15;;;2.30;;
22737;SDS011;11536;50.860;4.286;2022-08-14T05:33:13;5.28;;;2.40;;
22737;SDS011;11536;50.860;4.286;2022-08-14T05:35:40;4.90;;;2.10;;
22737;SDS011;11536;50.860;4.286;2022-08-14T05:38:08;5.65;;;2.67;;
22737;SDS011;11536;50.860;4.286;2022-08-14T05:40:34;5.40;;;2.85;;
22737;SDS011;11536;50.860;4.286;2022-08-14T05:43:01;4.78;;;2.67;;
22737;SDS011;11536;50.860;4.286;2022-08-14T05:45:27;6.13;;;2.78;;
22737;SDS011;11536;50.860;4.286;2022-08-14T05:47:52;5.90;;;2.45;;
22737;SDS011;11536;50.860;4.286;2022-08-14T05:50:19;7.60;;;3.13;;
22737;SDS011;11536;50.860;4.286;2022-08-14T05:52:44;8.00;;;2.65;;
22737;SDS011;11536;50.860;4.286;2022-08-14T05:55:11;6.35;;;3.10;;
22737;SDS011;11536;50.860;4.286;2022-08-14T05:57:47;5.88;;;3.00;;
22737;SDS011;11536;50.860;4.286;2022-08-14T06:00:19;7.25;;;2.97;;
22737;SDS011;11536;50.860;4.286;2022-08-14T06:02:47;5.95;;;2.60;;
22737;SDS011;11536;50.860;4.286;2022-08-14T06:05:12;5.90;;;2.67;;
22737;SDS011;11536;50.860;4.286;2022-08-14T06:07:38;4.75;;;2.40;;
22737;SDS011;11536;50.860;4.286;2022-08-14T06:10:06;4.35;;;2.67;;
22737;SDS011;11536;50.860;4.286;2022-08-14T06:12:33;5.72;;;2.83;;
22737;SDS011;11536;50.860;4.286;2022-08-14T06:14:59;5.20;;;2.70;;
22737;SDS011;11536;50.860;4.286;2022-08-14T06:17:25;4.30;;;2.38;;
22737;SDS011;11536;50.860;4.286;2022-08-14T06:19:51;6.80;;;2.85;;
22737;SDS011;11536;50.860;4.286;2022-08-14T06:22:17;7.45;;;2.45;;
22737;SDS011;11536;50.860;4.286;2022-08-14T06:24:42;8.73;;;3.42;;
22737;SDS011;11536;50.860;4.286;2022-08-14T06:27:08;4.63;;;2.42;;
22737;SDS011;11536;50.860;4.286;2022-08-14T06:29:35;9.43;;;2.85;;
22737;SDS011;11536;50.860;4.286;2022-08-14T06:32:02;7.32;;;2.70;;
22737;SDS011;11536;50.860;4.286;2022-08-14T06:34:28;5.72;;;2.65;;
22737;SDS011;11536;50.860;4.286;2022-08-14T06:36:53;4.20;;;2.20;;
22737;SDS011;11536;50.860;4.286;2022-08-14T06:39:21;7.70;;;2.70;;
22737;SDS011;11536;50.860;4.286;2022-08-14T06:41:47;5.15;;;2.42;;
22737;SDS011;11536;50.860;4.286;2022-08-14T06:44:12;7.25;;;2.47;;
22737;SDS011;11536;50.860;4.286;2022-08-14T06:46:38;6.75;;;2.53;;
22737;SDS011;11536;50.860;4.286;2022-08-14T06:49:04;7.22;;;2.67;;
22737;SDS011;11536;50.860;4.286;2022-08-14T06:51:30;4.85;;;2.72;;
22737;SDS011;11536;50.860;4.286;2022-08-14T06:53:55;4.95;;;2.45;;
22737;SDS011;11536;50.860;4.286;2022-08-14T06:56:21;7.70;;;2.42;;
22737;SDS011;11536;50.860;4.286;2022-08-14T06:58:47;5.10;;;3.20;;
22737;SDS011;11536;50.860;4.286;2022-08-14T07:01:13;6.63;;;3.20;;
22737;SDS011;11536;50.860;4.286;2022-08-14T07:03:58;5.88;;;3.63;;
22737;SDS011;11536;50.860;4.286;2022-08-14T07:09:10;5.95;;;4.03;;
22737;SDS011;11536;50.860;4.286;2022-08-14T07:11:36;6.35;;;3.75;;
22737;SDS011;11536;50.860;4.286;2022-08-14T07:14:02;5.55;;;3.60;;
22737;SDS011;11536;50.860;4.286;2022-08-14T07:16:28;7.85;;;3.80;;
22737;SDS011;11536;50.860;4.286;2022-08-14T07:18:54;5.10;;;3.38;;
22737;SDS011;11536;50.860;4.286;2022-08-14T07:21:20;5.68;;;3.60;;
22737;SDS011;11536;50.860;4.286;2022-08-14T07:23:46;10.43;;;3.70;;
22737;SDS011;11536;50.860;4.286;2022-08-14T07:26:12;6.90;;;4.13;;
22737;SDS011;11536;50.860;4.286;2022-08-14T07:28:38;8.55;;;3.90;;
22737;SDS011;11536;50.860;4.286;2022-08-14T07:31:06;5.85;;;3.40;;
22737;SDS011;11536;50.860;4.286;2022-08-14T07:33:35;5.60;;;3.15;;
22737;SDS011;11536;50.860;4.286;2022-08-14T07:36:06;4.72;;;3.08;;
22737;SDS011;11536;50.860;4.286;2022-08-14T07:38:33;5.35;;;3.50;;
22737;SDS011;11536;50.860;4.286;2022-08-14T07:41:00;5.40;;;3.17;;
22737;SDS011;11536;50.860;4.286;2022-08-14T07:43:25;4.88;;;2.70;;
22737;SDS011;11536;50.860;4.286;2022-08-14T07:45:51;6.07;;;2.60;;
22737;SDS011;11536;50.860;4.286;2022-08-14T07:48:17;4.85;;;2.67;;
22737;SDS011;11536;50.860;4.286;2022-08-14T07:50:43;5.68;;;2.67;;
22737;SDS011;11536;50.860;4.286;2022-08-14T07:53:11;5.22;;;2.58;;
22737;SDS011;11536;50.860;4.286;2022-08-14T07:55:38;6.32;;;2.80;;
22737;SDS011;11536;50.860;4.286;2022-08-14T07:58:05;6.85;;;2.70;;
22737;SDS011;11536;50.860;4.286;2022-08-14T08:00:30;5.40;;;3.20;;
22737;SDS011;11536;50.860;4.286;2022-08-14T08:02:57;6.60;;;3.17;;
22737;SDS011;11536;50.860;4.286;2022-08-14T08:05:23;5.82;;;2.70;;
22737;SDS011;11536;50.860;4.286;2022-08-14T08:07:50;5.60;;;2.92;;
22737;SDS011;11536;50.860;4.286;2022-08-14T08:10:18;7.55;;;3.00;;
22737;SDS011;11536;50.860;4.286;2022-08-14T08:15:39;5.25;;;2.92;;
22737;SDS011;11536;50.860;4.286;2022-08-14T08:18:07;4.32;;;2.45;;
22737;SDS011;11536;50.860;4.286;2022-08-14T08:20:34;6.50;;;2.65;;
22737;SDS011;11536;50.860;4.286;2022-08-14T08:23:02;4.53;;;2.75;;
22737;SDS011;11536;50.860;4.286;2022-08-14T08:25:34;6.30;;;2.90;;
22737;SDS011;11536;50.860;4.286;2022-08-14T08:30:55;4.30;;;2.60;;
22737;SDS011;11536;50.860;4.286;2022-08-14T08:33:25;4.35;;;2.70;;
22737;SDS011;11536;50.860;4.286;2022-08-14T08:35:57;4.82;;;2.40;;
22737;SDS011;11536;50.860;4.286;2022-08-14T08:38:30;4.82;;;2.75;;
22737;SDS011;11536;50.860;4.286;2022-08-14T08:40:56;5.70;;;2.67;;
22737;SDS011;11536;50.860;4.286;2022-08-14T08:43:26;5.05;;;2.42;;
22737;SDS011;11536;50.860;4.286;2022-08-14T08:48:28;4.72;;;2.33;;
22737;SDS011;11536;50.860;4.286;2022-08-14T08:50:59;4.63;;;2.70;;
22737;SDS011;11536;50.860;4.286;2022-08-14T08:53:30;4.95;;;2.45;;
22737;SDS011;11536;50.860;4.286;2022-08-14T08:55:58;5.15;;;2.33;;
22737;SDS011;11536;50.860;4.286;2022-08-14T08:58:25;9.18;;;2.60;;
22737;SDS011;11536;50.860;4.286;2022-08-14T09:00:55;5.28;;;2.60;;
22737;SDS011;11536;50.860;4.286;2022-08-14T09:03:23;5.63;;;2.38;;
22737;SDS011;11536;50.860;4.286;2022-08-14T09:08:26;3.72;;;1.73;;
22737;SDS011;11536;50.860;4.286;2022-08-14T09:10:53;2.47;;;1.37;;
22737;SDS011;11536;50.860;4.286;2022-08-14T09:13:21;3.83;;;1.77;;
22737;SDS011;11536;50.860;4.286;2022-08-14T09:15:50;3.00;;;1.42;;
22737;SDS011;11536;50.860;4.286;2022-08-14T09:18:18;5.25;;;1.60;;
22737;SDS011;11536;50.860;4.286;2022-08-14T09:20:49;3.35;;;1.58;;
22737;SDS011;11536;50.860;4.286;2022-08-14T09:23:17;5.07;;;1.65;;
22737;SDS011;11536;50.860;4.286;2022-08-14T09:25:45;2.75;;;1.52;;
22737;SDS011;11536;50.860;4.286;2022-08-14T09:28:12;4.72;;;1.70;;
22737;SDS011;11536;50.860;4.286;2022-08-14T09:30:42;2.65;;;1.33;;
22737;SDS011;11536;50.860;4.286;2022-08-14T09:33:19;5.53;;;1.60;;
22737;SDS011;11536;50.860;4.286;2022-08-14T09:38:32;3.47;;;1.40;;
22737;SDS011;11536;50.860;4.286;2022-08-14T09:44:06;3.35;;;1.60;;
22737;SDS011;11536;50.860;4.286;2022-08-14T09:46:50;2.05;;;1.17;;
22737;SDS011;11536;50.860;4.286;2022-08-14T09:49:29;2.00;;;1.13;;
22737;SDS011;11536;50.860;4.286;2022-08-14T09:52:06;3.35;;;1.40;;
22737;SDS011;11536;50.860;4.286;2022-08-14T09:54:41;4.82;;;1.52;;
22737;SDS011;11536;50.860;4.286;2022-08-14T09:57:32;4.20;;;1.60;;
22737;SDS011;11536;50.860;4.286;2022-08-14T10:00:08;2.30;;;1.20;;
22737;SDS011;11536;50.860;4.286;2022-08-14T10:02:34;4.55;;;1.45;;
22737;SDS011;11536;50.860;4.286;2022-08-14T10:05:08;2.72;;;1.60;;
22737;SDS011;11536;50.860;4.286;2022-08-14T10:07:49;2.78;;;1.48;;
22737;SDS011;11536;50.860;4.286;2022-08-14T10:13:06;4.25;;;1.20;;
22737;SDS011;11536;50.860;4.286;2022-08-14T10:15:44;2.03;;;1.25;;
22737;SDS011;11536;50.860;4.286;2022-08-14T10:18:11;2.88;;;1.30;;
22737;SDS011;11536;50.860;4.286;2022-08-14T10:20:42;3.85;;;1.50;;
22737;SDS011;11536;50.860;4.286;2022-08-14T10:23:22;3.45;;;1.15;;
22737;SDS011;11536;50.860;4.286;2022-08-14T10:25:49;2.40;;;1.27;;
22737;SDS011;11536;50.860;4.286;2022-08-14T10:28:18;7.18;;;1.65;;
22737;SDS011;11536;50.860;4.286;2022-08-14T10:30:45;3.67;;;1.48;;
22737;SDS011;11536;50.860;4.286;2022-08-14T10:33:29;4.05;;;1.67;;
22737;SDS011;11536;50.860;4.286;2022-08-14T10:35:57;3.63;;;1.58;;
22737;SDS011;11536;50.860;4.286;2022-08-14T10:38:27;4.65;;;1.40;;
22737;SDS011;11536;50.860;4.286;2022-08-14T10:41:10;4.32;;;1.40;;
22737;SDS011;11536;50.860;4.286;2022-08-14T10:43:41;3.92;;;1.60;;
22737;SDS011;11536;50.860;4.286;2022-08-14T10:46:16;2.72;;;1.30;;
22737;SDS011;11536;50.860;4.286;2022-08-14T10:48:58;2.88;;;1.52;;
22737;SDS011;11536;50.860;4.286;2022-08-14T10:51:28;2.63;;;1.48;;
22737;SDS011;11536;50.860;4.286;2022-08-14T10:53:58;3.70;;;1.52;;
22737;SDS011;11536;50.860;4.286;2022-08-14T10:56:32;3.08;;;1.65;;
22737;SDS011;11536;50.860;4.286;2022-08-14T10:59:07;2.70;;;1.50;;
22737;SDS011;11536;50.860;4.286;2022-08-14T11:01:35;4.28;;;1.63;;
22737;SDS011;11536;50.860;4.286;2022-08-14T11:04:02;4.07;;;1.52;;
22737;SDS011;11536;50.860;4.286;2022-08-14T11:06:28;5.13;;;1.73;;
22737;SDS011;11536;50.860;4.286;2022-08-14T11:09:01;3.17;;;1.65;;
22737;SDS011;11536;50.860;4.286;2022-08-14T11:11:41;3.27;;;1.37;;
22737;SDS011;11536;50.860;4.286;2022-08-14T11:14:07;5.32;;;1.35;;
22737;SDS011;11536;50.860;4.286;2022-08-14T11:16:32;2.97;;;1.48;;
22737;SDS011;11536;50.860;4.286;2022-08-14T11:19:00;3.10;;;1.50;;
22737;SDS011;11536;50.860;4.286;2022-08-14T11:21:27;2.10;;;1.20;;
22737;SDS011;11536;50.860;4.286;2022-08-14T11:23:54;3.38;;;1.30;;
22737;SDS011;11536;50.860;4.286;2022-08-14T11:26:21;3.50;;;1.33;;
22737;SDS011;11536;50.860;4.286;2022-08-14T11:28:49;2.35;;;1.30;;
22737;SDS011;11536;50.860;4.286;2022-08-14T11:31:19;3.65;;;1.50;;
22737;SDS011;11536;50.860;4.286;2022-08-14T11:33:47;4.38;;;1.40;;
22737;SDS011;11536;50.860;4.286;2022-08-14T11:36:15;2.95;;;1.30;;
22737;SDS011;11536;50.860;4.286;2022-08-14T11:38:42;4.28;;;1.48;;
22737;SDS011;11536;50.860;4.286;2022-08-14T11:41:12;2.90;;;1.50;;
22737;SDS011;11536;50.860;4.286;2022-08-14T11:43:43;4.53;;;1.73;;
22737;SDS011;11536;50.860;4.286;2022-08-14T11:46:11;2.88;;;1.60;;
22737;SDS011;11536;50.860;4.286;2022-08-14T11:48:44;3.83;;;1.50;;
22737;SDS011;11536;50.860;4.286;2022-08-14T11:51:12;3.33;;;1.13;;
22737;SDS011;11536;50.860;4.286;2022-08-14T11:53:42;3.33;;;1.40;;
22737;SDS011;11536;50.860;4.286;2022-08-14T11:56:21;4.00;;;1.52;;
22737;SDS011;11536;50.860;4.286;2022-08-14T11:58:51;4.05;;;1.40;;
22737;SDS011;11536;50.860;4.286;2022-08-14T12:01:25;3.72;;;1.52;;
22737;SDS011;11536;50.860;4.286;2022-08-14T12:03:53;4.20;;;1.60;;
22737;SDS011;11536;50.860;4.286;2022-08-14T12:06:21;3.65;;;1.60;;
22737;SDS011;11536;50.860;4.286;2022-08-14T12:08:47;3.60;;;1.60;;
22737;SDS011;11536;50.860;4.286;2022-08-14T12:11:17;4.30;;;1.73;;
22737;SDS011;11536;50.860;4.286;2022-08-14T12:13:43;3.88;;;1.52;;
22737;SDS011;11536;50.860;4.286;2022-08-14T12:16:11;3.17;;;1.50;;
22737;SDS011;11536;50.860;4.286;2022-08-14T12:18:41;2.45;;;1.13;;
22737;SDS011;11536;50.860;4.286;2022-08-14T12:23:37;2.75;;;1.30;;
22737;SDS011;11536;50.860;4.286;2022-08-14T12:26:04;2.88;;;1.08;;
22737;SDS011;11536;50.860;4.286;2022-08-14T12:28:31;3.83;;;1.10;;
22737;SDS011;11536;50.860;4.286;2022-08-14T12:30:57;2.75;;;1.20;;
22737;SDS011;11536;50.860;4.286;2022-08-14T12:35:54;2.78;;;1.00;;
22737;SDS011;11536;50.860;4.286;2022-08-14T12:38:33;2.22;;;1.23;;
22737;SDS011;11536;50.860;4.286;2022-08-14T12:41:00;2.53;;;1.13;;
22737;SDS011;11536;50.860;4.286;2022-08-14T12:43:26;1.60;;;0.90;;
22737;SDS011;11536;50.860;4.286;2022-08-14T12:45:53;2.60;;;1.15;;
22737;SDS011;11536;50.860;4.286;2022-08-14T12:48:20;3.50;;;1.10;;
22737;SDS011;11536;50.860;4.286;2022-08-14T12:50:47;2.80;;;1.10;;
22737;SDS011;11536;50.860;4.286;2022-08-14T12:53:18;4.32;;;1.10;;
22737;SDS011;11536;50.860;4.286;2022-08-14T12:55:45;2.63;;;0.85;;
22737;SDS011;11536;50.860;4.286;2022-08-14T12:58:26;3.58;;;1.20;;
22737;SDS011;11536;50.860;4.286;2022-08-14T13:00:52;1.73;;;0.93;;
22737;SDS011;11536;50.860;4.286;2022-08-14T13:03:24;1.83;;;1.00;;
22737;SDS011;11536;50.860;4.286;2022-08-14T13:05:51;2.70;;;1.08;;
22737;SDS011;11536;50.860;4.286;2022-08-14T13:08:17;3.97;;;1.25;;
22737;SDS011;11536;50.860;4.286;2022-08-14T13:10:43;3.10;;;1.10;;
22737;SDS011;11536;50.860;4.286;2022-08-14T13:13:11;2.50;;;1.10;;
22737;SDS011;11536;50.860;4.286;2022-08-14T13:15:39;2.35;;;1.10;;
22737;SDS011;11536;50.860;4.286;2022-08-14T13:18:09;3.65;;;1.30;;
22737;SDS011;11536;50.860;4.286;2022-08-14T13:20:36;2.70;;;1.30;;
22737;SDS011;11536;50.860;4.286;2022-08-14T13:23:05;3.67;;;1.27;;
22737;SDS011;11536;50.860;4.286;2022-08-14T13:25:32;8.48;;;1.38;;
22737;SDS011;11536;50.860;4.286;2022-08-14T13:28:01;2.65;;;1.10;;
22737;SDS011;11536;50.860;4.286;2022-08-14T13:30:28;3.45;;;1.20;;
22737;SDS011;11536;50.860;4.286;2022-08-14T13:32:56;2.33;;;1.08;;
22737;SDS011;11536;50.860;4.286;2022-08-14T13:35:21;8.38;;;1.40;;
22737;SDS011;11536;50.860;4.286;2022-08-14T13:37:48;2.13;;;1.10;;
22737;SDS011;11536;50.860;4.286;2022-08-14T13:40:16;2.70;;;1.30;;
22737;SDS011;11536;50.860;4.286;2022-08-14T13:42:44;2.53;;;1.15;;
22737;SDS011;11536;50.860;4.286;2022-08-14T13:45:12;3.08;;;1.60;;
22737;SDS011;11536;50.860;4.286;2022-08-14T13:47:39;2.95;;;1.42;;
22737;SDS011;11536;50.860;4.286;2022-08-14T13:50:06;2.25;;;1.20;;
22737;SDS011;11536;50.860;4.286;2022-08-14T13:52:44;2.22;;;1.17;;
22737;SDS011;11536;50.860;4.286;2022-08-14T13:55:18;3.40;;;1.60;;
22737;SDS011;11536;50.860;4.286;2022-08-14T13:57:47;4.22;;;1.23;;
22737;SDS011;11536;50.860;4.286;2022-08-14T14:00:13;2.40;;;1.25;;
22737;SDS011;11536;50.860;4.286;2022-08-14T14:02:40;3.35;;;1.85;;
22737;SDS011;11536;50.860;4.286;2022-08-14T14:05:08;5.95;;;1.00;;
22737;SDS011;11536;50.860;4.286;2022-08-14T14:07:36;2.35;;;1.10;;
22737;SDS011;11536;50.860;4.286;2022-08-14T14:10:05;3.30;;;1.38;;
22737;SDS011;11536;50.860;4.286;2022-08-14T14:12:35;1.92;;;0.90;;
22737;SDS011;11536;50.860;4.286;2022-08-14T14:15:02;3.92;;;1.30;;
22737;SDS011;11536;50.860;4.286;2022-08-14T14:17:30;2.42;;;1.00;;
22737;SDS011;11536;50.860;4.286;2022-08-14T14:19:58;1.90;;;1.00;;
22737;SDS011;11536;50.860;4.286;2022-08-14T14:22:27;1.70;;;1.00;;
22737;SDS011;11536;50.860;4.286;2022-08-14T14:24:53;4.00;;;1.23;;
22737;SDS011;11536;50.860;4.286;2022-08-14T14:27:20;8.15;;;1.25;;
22737;SDS011;11536;50.860;4.286;2022-08-14T14:29:48;3.20;;;1.02;;
22737;SDS011;11536;50.860;4.286;2022-08-14T14:32:16;1.65;;;0.98;;
22737;SDS011;11536;50.860;4.286;2022-08-14T14:34:42;2.45;;;1.10;;
22737;SDS011;11536;50.860;4.286;2022-08-14T14:37:09;5.78;;;0.90;;
22737;SDS011;11536;50.860;4.286;2022-08-14T14:39:37;2.75;;;1.25;;
22737;SDS011;11536;50.860;4.286;2022-08-14T14:42:04;3.97;;;1.40;;
22737;SDS011;11536;50.860;4.286;2022-08-14T14:44:33;3.67;;;1.50;;
22737;SDS011;11536;50.860;4.286;2022-08-14T14:47:06;3.35;;;1.27;;
22737;SDS011;11536;50.860;4.286;2022-08-14T14:49:33;2.05;;;1.25;;
22737;SDS011;11536;50.860;4.286;2022-08-14T14:51:58;3.20;;;1.13;;
22737;SDS011;11536;50.860;4.286;2022-08-14T14:54:25;3.10;;;1.40;;
22737;SDS011;11536;50.860;4.286;2022-08-14T14:56:53;2.00;;;1.15;;
22737;SDS011;11536;50.860;4.286;2022-08-14T14:59:20;3.20;;;1.73;;
22737;SDS011;11536;50.860;4.286;2022-08-14T15:01:47;4.85;;;1.80;;
22737;SDS011;11536;50.860;4.286;2022-08-14T15:04:14;2.80;;;1.40;;
22737;SDS011;11536;50.860;4.286;2022-08-14T15:06:44;2.00;;;1.23;;
22737;SDS011;11536;50.860;4.286;2022-08-14T15:09:09;2.63;;;1.23;;
22737;SDS011;11536;50.860;4.286;2022-08-14T15:11:35;2.47;;;1.27;;
22737;SDS011;11536;50.860;4.286;2022-08-14T15:14:00;3.78;;;1.15;;
22737;SDS011;11536;50.860;4.286;2022-08-14T15:16:27;2.70;;;1.40;;
22737;SDS011;11536;50.860;4.286;2022-08-14T15:18:52;4.68;;;1.40;;
22737;SDS011;11536;50.860;4.286;2022-08-14T15:21:18;3.13;;;1.40;;
22737;SDS011;11536;50.860;4.286;2022-08-14T15:23:44;1.88;;;1.10;;